Berne, NY

3:59 AM EDT on October 31, 2014 (GMT -0400)
Morse State | Change Station
CLOSE
Current Station
Airport
Location: Bennington,
Elevation: 827 ft
Nearby Weather Stations

Elev 827 ft 42.89 °N, 73.25 °W | Updated 5 minutes ago

Partly Cloudy
Partly Cloudy
33 °F
Feels Like 30 °F
N
4
Wind Variable Wind from South

Today
High -- | Low -- °F
--% Chance of Precip.
Yesterday
High -- | Low -- °F
Precip. -- in
7:29 AM 5:50 PM
First Quarter, 52% visible
Pressure 30.03 in
Visibility 10.0 miles
Clouds Mostly Cloudy 4200 ft
Windchill 30 °F
Dew Point 30 °F
Humidity 89%
Rainfall 0.00 in
Snow Depth Not available.
UV 0 out of 12
Pollen .60 out of 12
Air Quality Not available.
Flu Activity Not available.
METAR KDDH 310754Z AUTO 17003KT 10SM BKN042 01/M01 A3001 RMK AO2 SLP168 T00061011

More Conditions Fewer Conditions

Pressure 30.03 in
Visibility 10.0 miles
Clouds Mostly Cloudy 4200 ft
Windchill 30 °F
Dew Point 30 °F
Humidity 89%
Rainfall 0.00 in
Snow Depth Not available.
UV 0 out of 12
Pollen .60 out of 12
Air Quality Not available.
Flu Activity Not available.
METAR KDDH 310754Z AUTO 17003KT 10SM BKN042 01/M01 A3001 RMK AO2 SLP168 T00061011

More Conditions Fewer Conditions

10-Day Weather Forecast

Almanac

Astronomy

Oct. 31, 2014 Rise Set
Actual Time
Civil Twilight
Nautical Twilight
Astronomical Twilight
Moon
Length of Visible Light
Length of Day
Tomorrow will be .
, % of the Moon is Illuminated

Today's Extremes

State Highs State Lows

Community

WunderPhotos

Upload Photos

1,766,573 photos uploaded!

WunderBlogs® & News

Nearby

Air Quality

  Air Quality AQ Index Pollutant
Not available.

Snow Depth

Station Depth Elevation

Earthquake Activity

City Distance Mag. Time & Date
Minimum magnitude displayed is 2.5.

Coastal Water Temperatures

Place Temperature

Nearby Weather Stations